createdAt,value
2018-01-03T00:00:35.429Z,0.95
2018-01-03T00:03:02.149Z,1.10
2018-01-03T00:05:30.802Z,0.98
2018-01-03T00:08:06.327Z,0.80
2018-01-03T00:10:33.058Z,0.60
2018-01-03T00:12:59.790Z,0.82
2018-01-03T00:15:28.361Z,0.60
2018-01-03T00:17:55.090Z,0.70
2018-01-03T00:20:35.921Z,0.70
2018-01-03T00:23:03.081Z,0.90
2018-01-03T00:28:07.167Z,0.80
2018-01-03T00:30:35.818Z,0.60
2018-01-03T00:33:04.878Z,0.70
2018-01-03T00:38:14.235Z,0.70
2018-01-03T00:43:29.155Z,0.70
2018-01-03T00:45:55.881Z,0.85
2018-01-03T00:48:24.196Z,0.80
2018-01-03T00:50:52.593Z,0.80
2018-01-03T00:53:30.643Z,0.70
2018-01-03T00:55:59.312Z,0.57
2018-01-03T01:01:28.821Z,0.50
2018-01-03T01:06:43.519Z,0.50
2018-01-03T01:09:22.703Z,0.70
2018-01-03T01:11:50.223Z,0.88
2018-01-03T01:14:21.122Z,0.40
2018-01-03T01:22:13.650Z,0.57
2018-01-03T01:24:41.633Z,0.65
2018-01-03T01:27:23.834Z,0.50
2018-01-03T01:35:41.478Z,0.60
2018-01-03T01:44:13.337Z,0.40
2018-01-03T01:46:50.706Z,0.55
2018-01-03T01:57:36.130Z,0.60
2018-01-03T02:00:08.591Z,0.50
2018-01-03T02:05:15.006Z,0.40
2018-01-03T02:10:52.849Z,0.50
2018-01-03T02:23:59.194Z,0.52
2018-01-03T02:31:51.414Z,0.60
2018-01-03T02:34:18.494Z,0.57
2018-01-03T02:36:46.638Z,0.85
2018-01-03T02:41:55.285Z,0.60
2018-01-03T02:47:00.086Z,0.70
2018-01-03T02:49:45.754Z,0.60
2018-01-03T02:52:13.082Z,0.60
2018-01-03T02:57:16.867Z,0.70
2018-01-03T03:04:59.618Z,0.60
2018-01-03T03:07:28.242Z,0.60
2018-01-03T03:09:58.174Z,0.55
2018-01-03T03:12:29.829Z,0.60
2018-01-03T03:15:02.834Z,0.70
2018-01-03T03:20:10.799Z,0.50
2018-01-03T03:22:39.051Z,0.57
2018-01-03T03:25:08.278Z,0.60
2018-01-03T03:27:37.206Z,0.50
2018-01-03T03:32:44.154Z,0.40
2018-01-03T03:41:11.774Z,0.52
2018-01-03T03:43:57.087Z,0.40
2018-01-03T03:57:37.870Z,0.40
2018-01-03T04:00:05.555Z,0.35
2018-01-03T04:02:36.633Z,0.30
2018-01-03T04:05:06.199Z,0.30
2018-01-03T04:07:34.763Z,0.30
2018-01-03T04:15:11.185Z,0.35
2018-01-03T04:17:40.810Z,0.30
2018-01-03T04:20:12.153Z,0.30
2018-01-03T04:22:43.928Z,0.50
2018-01-03T04:25:11.574Z,0.40
2018-01-03T04:32:50.581Z,0.30
2018-01-03T04:35:17.690Z,0.40
2018-01-03T04:37:46.730Z,0.30
2018-01-03T04:43:07.206Z,0.40
2018-01-03T04:45:36.075Z,0.40
2018-01-03T04:48:06.957Z,0.30
2018-01-03T04:53:21.461Z,0.40
2018-01-03T04:55:48.238Z,1.80
2018-01-03T04:58:15.780Z,0.88
2018-01-03T05:00:42.651Z,0.50
2018-01-03T05:05:44.253Z,0.40
2018-01-03T05:08:13.435Z,0.40
2018-01-03T05:10:40.206Z,0.40
2018-01-03T05:13:06.934Z,0.40
2018-01-03T05:15:33.686Z,0.47
2018-01-03T05:18:03.603Z,0.57
2018-01-03T05:20:33.594Z,0.40
2018-01-03T05:28:07.238Z,0.60
2018-01-03T05:38:19.846Z,0.60
2018-01-03T05:40:49.386Z,0.68
2018-01-03T05:46:16.679Z,0.43
2018-01-03T05:48:43.415Z,0.40
2018-01-03T05:51:10.154Z,0.60
2018-01-03T05:58:56.259Z,0.60
2018-01-03T06:09:34.589Z,0.70
2018-01-03T06:12:14.154Z,0.60
2018-01-03T06:36:30.929Z,0.95
2018-01-03T06:41:41.663Z,1.33
2018-01-03T06:44:08.446Z,1.62
2018-01-03T06:54:44.538Z,1.30
2018-01-03T06:57:12.904Z,1.50
2018-01-03T06:59:39.627Z,1.92
2018-01-03T07:04:39.658Z,1.80
2018-01-03T07:09:53.837Z,1.80
2018-01-03T07:12:20.582Z,2.10
2018-01-03T07:22:59.327Z,1.65
2018-01-03T07:30:29.779Z,1.30
2018-01-03T07:43:13.287Z,1.50
2018-01-03T07:50:47.516Z,1.77
2018-01-03T07:53:16.799Z,1.45
2018-01-03T08:29:02.350Z,1.45
2018-01-03T08:31:29.423Z,1.58
2018-01-03T08:33:57.069Z,1.50
2018-01-03T08:36:23.854Z,0.90
2018-01-03T08:38:51.299Z,1.30
2018-01-03T08:41:19.646Z,1.10
2018-01-03T08:43:46.414Z,1.27
2018-01-03T09:01:21.408Z,0.80
2018-01-03T09:06:20.970Z,0.90
2018-01-03T09:13:50.634Z,0.80
2018-01-03T09:18:51.411Z,2.10
2018-01-03T09:36:29.322Z,1.30
2018-01-03T09:38:56.130Z,1.23
2018-01-03T09:46:37.907Z,1.27
2018-01-03T09:51:49.154Z,1.27
2018-01-03T09:56:50.934Z,1.70
2018-01-03T10:01:50.289Z,2.20
2018-01-03T10:04:22.103Z,1.95
2018-01-03T10:06:49.163Z,2.10
2018-01-03T10:09:18.190Z,2.67
2018-01-03T10:16:56.261Z,1.80
2018-01-03T10:19:23.398Z,1.83
2018-01-03T10:24:24.388Z,1.98
2018-01-03T10:31:56.732Z,2.45
2018-01-03T10:34:24.971Z,2.42
2018-01-03T10:50:00.868Z,2.15
2018-01-03T11:00:20.520Z,1.52
2018-01-03T11:07:58.077Z,2.10
2018-01-03T11:17:59.223Z,2.70
2018-01-03T11:22:56.973Z,2.50
2018-01-03T11:25:25.334Z,2.45
2018-01-03T11:27:52.942Z,2.55
2018-01-03T11:30:21.406Z,2.90
2018-01-03T11:35:20.277Z,2.30
2018-01-03T11:37:47.352Z,2.08
2018-01-03T11:40:17.623Z,3.08
2018-01-03T11:42:44.822Z,2.53
2018-01-03T11:45:11.819Z,2.20
2018-01-03T11:47:38.843Z,1.85
2018-01-03T11:50:05.591Z,1.65
2018-01-03T11:52:32.317Z,1.80
2018-01-03T11:54:59.055Z,1.75
2018-01-03T11:57:26.609Z,2.15
2018-01-03T11:59:55.059Z,3.47
2018-01-03T12:02:22.066Z,2.58
2018-01-03T12:04:48.804Z,2.08
2018-01-03T12:07:15.544Z,2.70
2018-01-03T12:09:43.887Z,2.30
2018-01-03T12:12:11.583Z,2.83
2018-01-03T12:14:38.298Z,1.80
2018-01-03T12:17:05.938Z,2.00
2018-01-03T12:19:34.418Z,1.98
2018-01-03T12:22:01.184Z,1.90
2018-01-03T12:24:27.898Z,2.40
2018-01-03T12:26:54.670Z,2.15
2018-01-03T12:29:21.422Z,3.12
2018-01-03T12:31:48.141Z,1.85
2018-01-03T12:34:14.854Z,2.15
2018-01-03T12:36:41.594Z,2.28
2018-01-03T12:39:08.340Z,3.37
2018-01-03T12:41:36.715Z,2.40
2018-01-03T12:44:03.475Z,3.10
2018-01-03T12:46:30.548Z,2.50
2018-01-03T12:48:57.299Z,2.30
2018-01-03T12:51:24.615Z,2.35
2018-01-03T12:53:51.347Z,2.10
2018-01-03T12:56:18.112Z,1.90
2018-01-03T12:58:46.601Z,2.20
2018-01-03T13:01:13.369Z,2.40
2018-01-03T13:03:43.984Z,2.47
2018-01-03T13:06:12.356Z,2.42
2018-01-03T13:13:41.546Z,2.42
2018-01-03T13:16:09.239Z,2.42
2018-01-03T13:18:39.557Z,2.55
2018-01-03T13:21:07.130Z,2.10
2018-01-03T13:23:34.100Z,2.80
2018-01-03T13:26:00.821Z,2.47
2018-01-03T13:28:27.545Z,2.53
2018-01-03T13:30:54.587Z,3.30
2018-01-03T13:35:52.331Z,2.33
2018-01-03T13:38:19.799Z,2.47
2018-01-03T13:40:46.534Z,2.85
2018-01-03T13:43:13.272Z,2.45
2018-01-03T13:45:40.500Z,2.40
2018-01-03T13:48:07.231Z,2.80
2018-01-03T13:50:37.550Z,2.87
2018-01-03T13:53:04.310Z,2.00
2018-01-03T13:55:31.332Z,2.10
2018-01-03T13:57:58.102Z,2.22
2018-01-03T14:00:24.840Z,2.30
2018-01-03T14:02:51.597Z,2.40
2018-01-03T14:07:51.534Z,2.55
2018-01-03T14:10:18.991Z,2.87
2018-01-03T14:12:46.156Z,2.55
2018-01-03T14:17:44.723Z,2.25
2018-01-03T14:20:11.682Z,3.28
2018-01-03T14:22:43.019Z,3.15
2018-01-03T14:25:10.538Z,2.80
2018-01-03T14:27:38.122Z,3.12
2018-01-03T14:30:05.690Z,2.28
2018-01-03T14:32:32.798Z,2.47
2018-01-03T14:35:00.362Z,2.37
2018-01-03T14:37:29.120Z,1.80
2018-01-03T14:45:05.610Z,2.75
2018-01-03T14:50:05.110Z,2.47
2018-01-03T14:52:32.698Z,2.65
2018-01-03T15:02:34.586Z,2.55
2018-01-03T15:05:02.935Z,2.30
2018-01-03T15:10:02.419Z,2.10
2018-01-03T15:12:29.508Z,2.53
2018-01-03T15:14:57.014Z,1.87
2018-01-03T15:17:28.083Z,2.37
2018-01-03T15:19:55.165Z,2.42
2018-01-03T15:22:22.502Z,3.08
2018-01-03T15:34:53.962Z,2.53
2018-01-03T15:37:20.671Z,2.22
2018-01-03T15:39:47.462Z,2.17
2018-01-03T15:42:14.227Z,2.50
2018-01-03T15:44:46.946Z,2.03
2018-01-03T15:47:13.678Z,2.30
2018-01-03T15:49:40.414Z,2.45
2018-01-03T15:57:11.078Z,2.30
2018-01-03T15:59:39.549Z,1.55
2018-01-03T16:02:06.299Z,2.30
2018-01-03T16:04:33.043Z,1.83
2018-01-03T16:06:59.825Z,2.05
2018-01-03T16:11:58.596Z,1.50
2018-01-03T16:14:25.336Z,2.80
2018-01-03T16:16:52.269Z,1.80
2018-01-03T16:19:19.030Z,1.55
2018-01-03T16:21:45.802Z,2.08
2018-01-03T16:24:12.521Z,1.58
2018-01-03T16:26:39.237Z,1.83
2018-01-03T16:29:05.990Z,2.03
2018-01-03T16:31:32.701Z,2.05
2018-01-03T16:33:59.462Z,1.98
2018-01-03T16:36:26.188Z,2.78
2018-01-03T16:38:52.946Z,2.30
2018-01-03T16:41:19.694Z,3.28
2018-01-03T16:43:46.430Z,2.67
2018-01-03T16:46:13.242Z,1.90
2018-01-03T16:51:11.000Z,2.42
2018-01-03T16:53:37.777Z,2.60
2018-01-03T16:58:35.565Z,2.58
2018-01-03T17:01:02.328Z,2.50
2018-01-03T17:03:29.075Z,3.40
2018-01-03T17:05:55.830Z,2.60
2018-01-03T17:08:22.546Z,2.50
2018-01-03T17:13:20.285Z,2.35
2018-01-03T17:15:47.042Z,3.00
2018-01-03T17:18:13.778Z,2.87
2018-01-03T17:20:40.510Z,2.65
2018-01-03T17:23:07.224Z,2.55
2018-01-03T17:25:33.999Z,2.20
2018-01-03T17:28:00.755Z,3.20
2018-01-03T17:30:27.541Z,3.78
2018-01-03T17:32:55.090Z,2.85
2018-01-03T17:35:21.926Z,2.12
2018-01-03T17:37:49.384Z,3.20
2018-01-03T17:40:16.123Z,2.95
2018-01-03T17:42:42.871Z,2.92
2018-01-03T17:45:09.611Z,2.72
2018-01-03T17:47:36.651Z,3.03
2018-01-03T17:50:05.088Z,3.47
2018-01-03T17:52:31.863Z,2.40
2018-01-03T17:54:58.607Z,2.70
2018-01-03T17:57:25.325Z,3.10
2018-01-03T17:59:52.123Z,2.83
2018-01-03T18:02:18.843Z,3.15
2018-01-03T18:04:45.619Z,2.55
2018-01-03T18:07:12.823Z,4.43
2018-01-03T18:12:10.938Z,2.62
2018-01-03T18:14:38.438Z,3.12
2018-01-03T18:17:05.158Z,2.45
2018-01-03T18:19:32.337Z,2.60
2018-01-03T18:21:59.336Z,2.55
2018-01-03T18:24:29.723Z,2.67
2018-01-03T18:26:57.539Z,2.90
2018-01-03T18:29:32.390Z,2.40
2018-01-03T18:34:38.631Z,2.87
2018-01-03T18:39:39.951Z,2.47
2018-01-03T18:44:50.683Z,2.40
2018-01-03T19:00:03.738Z,2.00
2018-01-03T19:05:04.352Z,2.60
2018-01-03T19:07:34.133Z,2.80
2018-01-03T19:10:07.694Z,2.45
2018-01-03T19:15:09.079Z,1.87
2018-01-03T19:20:07.786Z,2.17
2018-01-03T19:22:37.478Z,1.75
2018-01-03T19:27:36.282Z,2.08
2018-01-03T19:30:07.893Z,1.40
2018-01-03T19:32:37.398Z,1.80
2018-01-03T19:37:45.620Z,2.03
2018-01-03T19:40:13.011Z,1.80
2018-01-03T19:42:39.818Z,2.08
2018-01-03T19:45:09.437Z,2.70
2018-01-03T19:50:11.438Z,2.55
2018-01-03T19:52:47.786Z,3.05
2018-01-03T19:55:16.158Z,3.10
2018-01-03T19:57:43.210Z,2.47
2018-01-03T20:00:12.976Z,2.47
2018-01-03T20:02:39.714Z,3.20
2018-01-03T20:05:07.354Z,2.70
2018-01-03T20:18:04.399Z,3.10
2018-01-03T20:20:32.676Z,2.60
2018-01-03T20:23:00.816Z,2.67
2018-01-03T20:33:04.638Z,2.40
2018-01-03T20:35:31.874Z,2.55
2018-01-03T20:38:02.219Z,3.22
2018-01-03T20:40:29.898Z,3.10
2018-01-03T20:42:58.223Z,2.83
2018-01-03T20:45:26.414Z,3.50
2018-01-03T20:47:54.384Z,3.08
2018-01-03T20:50:22.039Z,3.70
2018-01-03T20:52:49.910Z,3.12
2018-01-03T20:55:18.254Z,4.10
2018-01-03T20:57:47.313Z,3.65
2018-01-03T21:02:46.802Z,2.90
2018-01-03T21:05:14.471Z,2.87
2018-01-03T21:10:19.741Z,3.90
2018-01-03T21:12:49.020Z,5.12
2018-01-03T21:22:55.615Z,3.15
2018-01-03T21:25:23.210Z,3.25
2018-01-03T21:27:51.791Z,2.97
2018-01-03T21:32:53.047Z,3.95
2018-01-03T21:35:22.742Z,3.45
2018-01-03T21:37:51.018Z,3.12
2018-01-03T21:45:25.094Z,3.20
2018-01-03T21:47:52.551Z,2.78
2018-01-03T21:50:20.573Z,2.97
2018-01-03T21:52:51.120Z,2.85
2018-01-03T21:57:50.560Z,3.12
2018-01-03T22:00:17.386Z,2.53
2018-01-03T22:02:44.400Z,2.85
2018-01-03T22:05:13.044Z,2.92
2018-01-03T22:07:39.754Z,3.17
2018-01-03T22:10:06.754Z,2.90
2018-01-03T22:12:33.506Z,3.35
2018-01-03T22:15:00.234Z,3.45
2018-01-03T22:17:26.946Z,3.40
2018-01-03T22:19:53.668Z,2.80
2018-01-03T22:22:22.340Z,2.25
2018-01-03T22:24:51.619Z,2.10
2018-01-03T22:27:23.722Z,2.45
2018-01-03T22:29:50.798Z,2.50
2018-01-03T22:34:53.693Z,3.67
2018-01-03T22:37:24.382Z,2.60
2018-01-03T22:39:54.262Z,4.00
2018-01-03T22:42:21.604Z,7.18
2018-01-03T22:44:49.344Z,3.25
2018-01-03T22:47:16.086Z,4.60
2018-01-03T22:52:16.081Z,4.57
2018-01-03T22:59:50.506Z,4.40
2018-01-03T23:02:23.868Z,3.83
2018-01-03T23:07:24.370Z,5.43
2018-01-03T23:12:22.246Z,7.40
2018-01-03T23:17:22.607Z,5.12
2018-01-03T23:19:53.478Z,5.28
2018-01-03T23:22:25.467Z,6.55
2018-01-03T23:24:55.770Z,8.20
2018-01-03T23:27:23.573Z,6.18
2018-01-03T23:32:42.845Z,6.25
2018-01-03T23:35:09.634Z,5.93
2018-01-03T23:37:36.719Z,5.97
2018-01-03T23:40:06.897Z,5.57
2018-01-03T23:42:35.579Z,5.30
2018-01-03T23:45:02.343Z,6.65
2018-01-03T23:50:14.734Z,5.87
2018-01-03T23:55:29.301Z,5.10
2018-01-03T23:57:56.534Z,4.37
